sensor_id;sensor_type;location;lat;lon;timestamp;P1;durP1;ratioP1;P2;durP2;ratioP2
52468;SDS011;38381;53.688;10.776;2023-03-01T00:03:15;4.20;;;3.90;;
52468;SDS011;38381;53.688;10.776;2023-03-01T00:08:15;5.25;;;3.80;;
52468;SDS011;38381;53.688;10.776;2023-03-01T00:13:16;3.80;;;3.50;;
52468;SDS011;38381;53.688;10.776;2023-03-01T00:18:16;4.53;;;4.00;;
52468;SDS011;38381;53.688;10.776;2023-03-01T00:23:16;5.32;;;4.93;;
52468;SDS011;38381;53.688;10.776;2023-03-01T00:28:17;4.60;;;4.20;;
52468;SDS011;38381;53.688;10.776;2023-03-01T00:33:18;4.90;;;4.50;;
52468;SDS011;38381;53.688;10.776;2023-03-01T00:38:18;4.47;;;4.07;;
52468;SDS011;38381;53.688;10.776;2023-03-01T00:43:19;4.90;;;4.50;;
52468;SDS011;38381;53.688;10.776;2023-03-01T00:48:20;3.88;;;3.45;;
52468;SDS011;38381;53.688;10.776;2023-03-01T00:53:20;4.30;;;3.90;;
52468;SDS011;38381;53.688;10.776;2023-03-01T00:58:20;4.97;;;4.43;;
52468;SDS011;38381;53.688;10.776;2023-03-01T01:03:21;4.30;;;4.00;;
52468;SDS011;38381;53.688;10.776;2023-03-01T01:08:22;4.40;;;4.00;;
52468;SDS011;38381;53.688;10.776;2023-03-01T01:13:22;4.05;;;3.75;;
52468;SDS011;38381;53.688;10.776;2023-03-01T01:18:22;4.60;;;4.20;;
52468;SDS011;38381;53.688;10.776;2023-03-01T01:23:23;3.85;;;3.55;;
52468;SDS011;38381;53.688;10.776;2023-03-01T01:28:23;6.18;;;3.97;;
52468;SDS011;38381;53.688;10.776;2023-03-01T01:33:24;5.30;;;4.75;;
52468;SDS011;38381;53.688;10.776;2023-03-01T01:38:24;4.60;;;4.20;;
52468;SDS011;38381;53.688;10.776;2023-03-01T01:43:26;4.93;;;4.10;;
52468;SDS011;38381;53.688;10.776;2023-03-01T01:48:32;4.18;;;3.78;;
52468;SDS011;38381;53.688;10.776;2023-03-01T01:53:42;4.55;;;4.15;;
52468;SDS011;38381;53.688;10.776;2023-03-01T01:58:48;4.45;;;4.03;;
52468;SDS011;38381;53.688;10.776;2023-03-01T02:03:50;5.53;;;4.13;;
52468;SDS011;38381;53.688;10.776;2023-03-01T02:08:51;4.75;;;4.35;;
52468;SDS011;38381;53.688;10.776;2023-03-01T02:13:53;5.40;;;4.90;;
52468;SDS011;38381;53.688;10.776;2023-03-01T02:18:54;4.27;;;3.87;;
52468;SDS011;38381;53.688;10.776;2023-03-01T02:23:56;4.37;;;3.97;;
52468;SDS011;38381;53.688;10.776;2023-03-01T02:28:58;4.38;;;4.03;;
52468;SDS011;38381;53.688;10.776;2023-03-01T02:33:59;5.65;;;4.22;;
52468;SDS011;38381;53.688;10.776;2023-03-01T02:39:00;4.78;;;4.38;;
52468;SDS011;38381;53.688;10.776;2023-03-01T02:44:03;4.72;;;4.30;;
52468;SDS011;38381;53.688;10.776;2023-03-01T02:49:15;5.03;;;4.63;;
52468;SDS011;38381;53.688;10.776;2023-03-01T02:54:24;4.47;;;4.07;;
52468;SDS011;38381;53.688;10.776;2023-03-01T02:59:30;4.97;;;4.55;;
52468;SDS011;38381;53.688;10.776;2023-03-01T03:04:39;4.13;;;3.83;;
52468;SDS011;38381;53.688;10.776;2023-03-01T03:09:39;4.50;;;4.10;;
52468;SDS011;38381;53.688;10.776;2023-03-01T03:14:40;4.50;;;4.10;;
52468;SDS011;38381;53.688;10.776;2023-03-01T03:19:40;4.22;;;3.83;;
52468;SDS011;38381;53.688;10.776;2023-03-01T03:24:41;5.72;;;4.38;;
52468;SDS011;38381;53.688;10.776;2023-03-01T03:29:41;5.05;;;4.65;;
52468;SDS011;38381;53.688;10.776;2023-03-01T03:34:41;4.82;;;4.43;;
52468;SDS011;38381;53.688;10.776;2023-03-01T03:39:42;4.50;;;4.10;;
52468;SDS011;38381;53.688;10.776;2023-03-01T03:44:42;4.68;;;4.28;;
52468;SDS011;38381;53.688;10.776;2023-03-01T03:49:42;5.60;;;5.00;;
52468;SDS011;38381;53.688;10.776;2023-03-01T03:54:43;6.05;;;5.50;;
52468;SDS011;38381;53.688;10.776;2023-03-01T03:59:43;6.45;;;5.85;;
52468;SDS011;38381;53.688;10.776;2023-03-01T04:04:44;7.13;;;5.88;;
52468;SDS011;38381;53.688;10.776;2023-03-01T04:09:44;5.63;;;5.13;;
52468;SDS011;38381;53.688;10.776;2023-03-01T04:14:44;5.95;;;5.13;;
52468;SDS011;38381;53.688;10.776;2023-03-01T04:19:45;5.63;;;5.13;;
52468;SDS011;38381;53.688;10.776;2023-03-01T04:24:48;6.30;;;5.70;;
52468;SDS011;38381;53.688;10.776;2023-03-01T04:29:49;6.53;;;5.10;;
52468;SDS011;38381;53.688;10.776;2023-03-01T04:34:49;6.90;;;5.70;;
52468;SDS011;38381;53.688;10.776;2023-03-01T04:39:49;6.47;;;5.30;;
52468;SDS011;38381;53.688;10.776;2023-03-01T04:44:50;5.90;;;5.35;;
52468;SDS011;38381;53.688;10.776;2023-03-01T04:49:51;6.22;;;5.65;;
52468;SDS011;38381;53.688;10.776;2023-03-01T04:54:51;5.90;;;5.30;;
52468;SDS011;38381;53.688;10.776;2023-03-01T04:59:52;6.93;;;6.33;;
52468;SDS011;38381;53.688;10.776;2023-03-01T05:04:52;6.00;;;5.47;;
52468;SDS011;38381;53.688;10.776;2023-03-01T05:09:57;5.78;;;5.18;;
52468;SDS011;38381;53.688;10.776;2023-03-01T05:14:57;6.93;;;6.22;;
52468;SDS011;38381;53.688;10.776;2023-03-01T05:19:58;8.38;;;6.28;;
52468;SDS011;38381;53.688;10.776;2023-03-01T05:24:59;6.93;;;6.32;;
52468;SDS011;38381;53.688;10.776;2023-03-01T05:30:00;8.18;;;7.35;;
52468;SDS011;38381;53.688;10.776;2023-03-01T05:40:18;7.50;;;6.80;;
52468;SDS011;38381;53.688;10.776;2023-03-01T05:45:20;7.80;;;6.95;;
52468;SDS011;38381;53.688;10.776;2023-03-01T05:55:27;8.10;;;6.15;;
52468;SDS011;38381;53.688;10.776;2023-03-01T06:00:29;6.53;;;5.82;;
52468;SDS011;38381;53.688;10.776;2023-03-01T06:05:31;7.70;;;6.00;;
52468;SDS011;38381;53.688;10.776;2023-03-01T06:10:31;6.32;;;5.72;;
52468;SDS011;38381;53.688;10.776;2023-03-01T06:15:32;7.75;;;6.50;;
52468;SDS011;38381;53.688;10.776;2023-03-01T06:20:32;7.07;;;6.38;;
52468;SDS011;38381;53.688;10.776;2023-03-01T06:25:33;7.22;;;6.53;;
52468;SDS011;38381;53.688;10.776;2023-03-01T06:30:33;7.63;;;6.70;;
52468;SDS011;38381;53.688;10.776;2023-03-01T06:35:33;8.27;;;5.88;;
52468;SDS011;38381;53.688;10.776;2023-03-01T06:40:34;7.47;;;6.15;;
52468;SDS011;38381;53.688;10.776;2023-03-01T06:45:35;7.40;;;6.07;;
52468;SDS011;38381;53.688;10.776;2023-03-01T06:50:37;8.05;;;7.25;;
52468;SDS011;38381;53.688;10.776;2023-03-01T06:55:37;10.38;;;7.78;;
52468;SDS011;38381;53.688;10.776;2023-03-01T07:00:38;7.30;;;6.13;;
52468;SDS011;38381;53.688;10.776;2023-03-01T07:10:41;8.77;;;7.87;;
52468;SDS011;38381;53.688;10.776;2023-03-01T07:15:41;9.90;;;8.60;;
52468;SDS011;38381;53.688;10.776;2023-03-01T07:20:41;17.55;;;9.65;;
52468;SDS011;38381;53.688;10.776;2023-03-01T07:25:42;10.38;;;8.95;;
52468;SDS011;38381;53.688;10.776;2023-03-01T07:30:42;12.00;;;10.60;;
52468;SDS011;38381;53.688;10.776;2023-03-01T07:35:43;19.35;;;14.50;;
52468;SDS011;38381;53.688;10.776;2023-03-01T07:40:43;19.25;;;16.27;;
52468;SDS011;38381;53.688;10.776;2023-03-01T07:45:43;20.27;;;14.53;;
52468;SDS011;38381;53.688;10.776;2023-03-01T07:50:44;18.67;;;14.27;;
52468;SDS011;38381;53.688;10.776;2023-03-01T07:55:44;21.05;;;14.65;;
52468;SDS011;38381;53.688;10.776;2023-03-01T08:00:45;18.38;;;13.82;;
52468;SDS011;38381;53.688;10.776;2023-03-01T08:05:45;18.42;;;15.20;;
52468;SDS011;38381;53.688;10.776;2023-03-01T08:10:45;19.20;;;16.30;;
52468;SDS011;38381;53.688;10.776;2023-03-01T08:15:46;23.52;;;15.32;;
52468;SDS011;38381;53.688;10.776;2023-03-01T08:20:46;20.45;;;14.95;;
52468;SDS011;38381;53.688;10.776;2023-03-01T08:25:47;18.85;;;14.20;;
52468;SDS011;38381;53.688;10.776;2023-03-01T08:30:47;15.75;;;12.82;;
52468;SDS011;38381;53.688;10.776;2023-03-01T08:35:48;19.80;;;14.95;;
52468;SDS011;38381;53.688;10.776;2023-03-01T08:40:48;16.77;;;13.80;;
52468;SDS011;38381;53.688;10.776;2023-03-01T08:45:49;17.58;;;14.95;;
52468;SDS011;38381;53.688;10.776;2023-03-01T08:50:49;18.97;;;16.03;;
52468;SDS011;38381;53.688;10.776;2023-03-01T08:55:50;17.08;;;13.85;;
52468;SDS011;38381;53.688;10.776;2023-03-01T09:00:50;17.10;;;15.30;;
52468;SDS011;38381;53.688;10.776;2023-03-01T09:05:51;19.63;;;14.73;;
52468;SDS011;38381;53.688;10.776;2023-03-01T09:10:52;24.52;;;18.27;;
52468;SDS011;38381;53.688;10.776;2023-03-01T09:15:53;21.23;;;15.52;;
52468;SDS011;38381;53.688;10.776;2023-03-01T09:20:53;17.92;;;14.10;;
52468;SDS011;38381;53.688;10.776;2023-03-01T09:26:01;18.83;;;14.38;;
52468;SDS011;38381;53.688;10.776;2023-03-01T09:31:02;18.88;;;14.05;;
52468;SDS011;38381;53.688;10.776;2023-03-01T09:36:04;16.55;;;13.32;;
52468;SDS011;38381;53.688;10.776;2023-03-01T09:46:28;18.35;;;13.93;;
52468;SDS011;38381;53.688;10.776;2023-03-01T09:51:33;14.63;;;13.07;;
52468;SDS011;38381;53.688;10.776;2023-03-01T09:57:38;15.48;;;12.75;;
52468;SDS011;38381;53.688;10.776;2023-03-01T10:12:47;12.30;;;11.10;;
52468;SDS011;38381;53.688;10.776;2023-03-01T10:22:57;13.10;;;11.18;;
52468;SDS011;38381;53.688;10.776;2023-03-01T10:28:16;14.65;;;10.57;;
52468;SDS011;38381;53.688;10.776;2023-03-01T10:38:22;15.57;;;10.85;;
52468;SDS011;38381;53.688;10.776;2023-03-01T10:43:23;15.77;;;11.35;;
52468;SDS011;38381;53.688;10.776;2023-03-01T10:48:25;12.55;;;11.10;;
52468;SDS011;38381;53.688;10.776;2023-03-01T10:59:02;13.07;;;10.18;;
52468;SDS011;38381;53.688;10.776;2023-03-01T11:14:25;12.55;;;11.05;;
52468;SDS011;38381;53.688;10.776;2023-03-01T11:19:27;15.25;;;12.65;;
52468;SDS011;38381;53.688;10.776;2023-03-01T11:24:30;11.98;;;10.10;;
52468;SDS011;38381;53.688;10.776;2023-03-01T11:35:23;10.35;;;9.07;;
52468;SDS011;38381;53.688;10.776;2023-03-01T11:51:38;8.60;;;6.60;;
52468;SDS011;38381;53.688;10.776;2023-03-01T11:56:40;7.72;;;5.90;;
52468;SDS011;38381;53.688;10.776;2023-03-01T12:27:55;10.10;;;7.53;;
52468;SDS011;38381;53.688;10.776;2023-03-01T12:49:13;3.20;;;2.60;;
52468;SDS011;38381;53.688;10.776;2023-03-01T12:54:16;3.88;;;3.08;;
52468;SDS011;38381;53.688;10.776;2023-03-01T12:59:33;4.80;;;4.18;;
52468;SDS011;38381;53.688;10.776;2023-03-01T13:10:03;5.50;;;3.97;;
52468;SDS011;38381;53.688;10.776;2023-03-01T13:20:25;5.43;;;4.28;;
52468;SDS011;38381;53.688;10.776;2023-03-01T13:25:31;5.72;;;4.15;;
52468;SDS011;38381;53.688;10.776;2023-03-01T13:35:41;4.68;;;4.03;;
52468;SDS011;38381;53.688;10.776;2023-03-01T13:41:01;3.85;;;3.47;;
52468;SDS011;38381;53.688;10.776;2023-03-01T13:46:07;4.60;;;4.13;;
52468;SDS011;38381;53.688;10.776;2023-03-01T13:51:11;4.47;;;3.50;;
52468;SDS011;38381;53.688;10.776;2023-03-01T14:01:36;6.35;;;4.50;;
52468;SDS011;38381;53.688;10.776;2023-03-01T14:06:36;6.95;;;4.43;;
52468;SDS011;38381;53.688;10.776;2023-03-01T14:17:39;5.57;;;4.47;;
52468;SDS011;38381;53.688;10.776;2023-03-01T14:22:47;6.03;;;4.70;;
52468;SDS011;38381;53.688;10.776;2023-03-01T14:27:56;4.53;;;3.58;;
52468;SDS011;38381;53.688;10.776;2023-03-01T14:33:01;4.75;;;4.35;;
52468;SDS011;38381;53.688;10.776;2023-03-01T14:38:03;5.43;;;4.93;;
52468;SDS011;38381;53.688;10.776;2023-03-01T14:43:08;6.57;;;4.63;;
52468;SDS011;38381;53.688;10.776;2023-03-01T14:48:10;5.68;;;4.70;;
52468;SDS011;38381;53.688;10.776;2023-03-01T14:53:24;6.17;;;5.40;;
52468;SDS011;38381;53.688;10.776;2023-03-01T14:58:26;7.18;;;5.40;;
52468;SDS011;38381;53.688;10.776;2023-03-01T15:08:33;10.20;;;9.15;;
52468;SDS011;38381;53.688;10.776;2023-03-01T15:13:37;12.13;;;9.20;;
52468;SDS011;38381;53.688;10.776;2023-03-01T15:18:37;13.77;;;11.23;;
52468;SDS011;38381;53.688;10.776;2023-03-01T15:23:49;14.63;;;11.50;;
52468;SDS011;38381;53.688;10.776;2023-03-01T15:28:52;11.98;;;10.38;;
52468;SDS011;38381;53.688;10.776;2023-03-01T15:34:08;13.38;;;11.18;;
52468;SDS011;38381;53.688;10.776;2023-03-01T15:44:45;14.45;;;12.90;;
52468;SDS011;38381;53.688;10.776;2023-03-01T15:49:45;16.67;;;13.85;;
52468;SDS011;38381;53.688;10.776;2023-03-01T15:54:45;13.70;;;11.65;;
52468;SDS011;38381;53.688;10.776;2023-03-01T15:59:46;14.07;;;12.60;;
52468;SDS011;38381;53.688;10.776;2023-03-01T16:04:47;16.95;;;12.05;;
52468;SDS011;38381;53.688;10.776;2023-03-01T16:09:48;21.77;;;13.30;;
52468;SDS011;38381;53.688;10.776;2023-03-01T16:14:49;16.02;;;12.85;;
52468;SDS011;38381;53.688;10.776;2023-03-01T16:19:50;15.98;;;12.88;;
52468;SDS011;38381;53.688;10.776;2023-03-01T16:24:50;16.63;;;12.57;;
52468;SDS011;38381;53.688;10.776;2023-03-01T16:29:50;17.63;;;12.43;;
52468;SDS011;38381;53.688;10.776;2023-03-01T16:34:51;16.20;;;14.15;;
52468;SDS011;38381;53.688;10.776;2023-03-01T16:39:51;16.70;;;12.77;;
52468;SDS011;38381;53.688;10.776;2023-03-01T16:44:56;17.90;;;14.82;;
52468;SDS011;38381;53.688;10.776;2023-03-01T16:49:56;19.67;;;15.05;;
52468;SDS011;38381;53.688;10.776;2023-03-01T16:54:57;16.48;;;12.98;;
52468;SDS011;38381;53.688;10.776;2023-03-01T16:59:57;17.77;;;13.47;;
52468;SDS011;38381;53.688;10.776;2023-03-01T17:04:57;19.92;;;15.23;;
52468;SDS011;38381;53.688;10.776;2023-03-01T17:09:58;21.10;;;15.82;;
52468;SDS011;38381;53.688;10.776;2023-03-01T17:14:59;18.67;;;13.70;;
52468;SDS011;38381;53.688;10.776;2023-03-01T17:20:00;17.35;;;13.75;;
52468;SDS011;38381;53.688;10.776;2023-03-01T17:25:00;18.95;;;15.68;;
52468;SDS011;38381;53.688;10.776;2023-03-01T17:30:01;14.93;;;13.07;;
52468;SDS011;38381;53.688;10.776;2023-03-01T17:35:02;18.30;;;15.65;;
52468;SDS011;38381;53.688;10.776;2023-03-01T17:40:03;18.02;;;13.80;;
52468;SDS011;38381;53.688;10.776;2023-03-01T17:45:05;15.98;;;13.45;;
52468;SDS011;38381;53.688;10.776;2023-03-01T17:50:06;18.70;;;13.85;;
52468;SDS011;38381;53.688;10.776;2023-03-01T17:55:08;15.90;;;12.30;;
52468;SDS011;38381;53.688;10.776;2023-03-01T18:00:10;16.80;;;13.77;;
52468;SDS011;38381;53.688;10.776;2023-03-01T18:05:11;39.85;;;13.90;;
52468;SDS011;38381;53.688;10.776;2023-03-01T18:10:12;20.85;;;14.93;;
52468;SDS011;38381;53.688;10.776;2023-03-01T18:15:12;36.30;;;13.27;;
52468;SDS011;38381;53.688;10.776;2023-03-01T18:20:13;12.82;;;10.73;;
52468;SDS011;38381;53.688;10.776;2023-03-01T18:25:14;14.80;;;10.68;;
52468;SDS011;38381;53.688;10.776;2023-03-01T18:30:15;10.27;;;8.88;;
52468;SDS011;38381;53.688;10.776;2023-03-01T18:35:15;29.95;;;11.20;;
52468;SDS011;38381;53.688;10.776;2023-03-01T18:40:16;12.85;;;10.55;;
52468;SDS011;38381;53.688;10.776;2023-03-01T18:45:16;14.13;;;11.27;;
52468;SDS011;38381;53.688;10.776;2023-03-01T18:50:18;17.17;;;11.48;;
52468;SDS011;38381;53.688;10.776;2023-03-01T18:55:18;17.52;;;10.07;;
52468;SDS011;38381;53.688;10.776;2023-03-01T19:00:19;14.13;;;9.70;;
52468;SDS011;38381;53.688;10.776;2023-03-01T19:05:20;14.85;;;9.57;;
52468;SDS011;38381;53.688;10.776;2023-03-01T19:10:20;13.98;;;11.70;;
52468;SDS011;38381;53.688;10.776;2023-03-01T19:15:20;17.55;;;9.77;;
52468;SDS011;38381;53.688;10.776;2023-03-01T19:20:22;11.65;;;9.82;;
52468;SDS011;38381;53.688;10.776;2023-03-01T19:25:22;12.17;;;9.63;;
52468;SDS011;38381;53.688;10.776;2023-03-01T19:30:22;12.65;;;9.90;;
52468;SDS011;38381;53.688;10.776;2023-03-01T19:35:23;15.15;;;12.77;;
52468;SDS011;38381;53.688;10.776;2023-03-01T19:40:23;18.05;;;9.27;;
52468;SDS011;38381;53.688;10.776;2023-03-01T19:45:24;18.45;;;10.57;;
52468;SDS011;38381;53.688;10.776;2023-03-01T19:50:24;15.43;;;10.77;;
52468;SDS011;38381;53.688;10.776;2023-03-01T19:55:25;11.38;;;9.98;;
52468;SDS011;38381;53.688;10.776;2023-03-01T20:00:26;12.27;;;10.38;;
52468;SDS011;38381;53.688;10.776;2023-03-01T20:05:27;16.67;;;10.43;;
52468;SDS011;38381;53.688;10.776;2023-03-01T20:10:35;19.58;;;9.45;;
52468;SDS011;38381;53.688;10.776;2023-03-01T20:15:35;21.85;;;12.95;;
52468;SDS011;38381;53.688;10.776;2023-03-01T20:20:37;18.70;;;9.82;;
52468;SDS011;38381;53.688;10.776;2023-03-01T20:25:38;12.23;;;9.85;;
52468;SDS011;38381;53.688;10.776;2023-03-01T20:30:39;12.25;;;8.98;;
52468;SDS011;38381;53.688;10.776;2023-03-01T20:35:40;11.57;;;9.13;;
52468;SDS011;38381;53.688;10.776;2023-03-01T20:40:42;13.48;;;8.38;;
52468;SDS011;38381;53.688;10.776;2023-03-01T20:45:42;12.65;;;9.27;;
52468;SDS011;38381;53.688;10.776;2023-03-01T20:50:42;19.65;;;9.13;;
52468;SDS011;38381;53.688;10.776;2023-03-01T20:55:43;9.43;;;7.75;;
52468;SDS011;38381;53.688;10.776;2023-03-01T21:00:44;11.98;;;8.55;;
52468;SDS011;38381;53.688;10.776;2023-03-01T21:05:44;8.32;;;6.63;;
52468;SDS011;38381;53.688;10.776;2023-03-01T21:10:48;9.40;;;7.40;;
52468;SDS011;38381;53.688;10.776;2023-03-01T21:15:51;13.18;;;9.60;;
52468;SDS011;38381;53.688;10.776;2023-03-01T21:20:59;11.57;;;9.40;;
52468;SDS011;38381;53.688;10.776;2023-03-01T21:26:01;11.30;;;8.90;;
52468;SDS011;38381;53.688;10.776;2023-03-01T21:31:04;10.32;;;8.48;;
52468;SDS011;38381;53.688;10.776;2023-03-01T21:36:16;10.80;;;9.40;;
52468;SDS011;38381;53.688;10.776;2023-03-01T21:41:18;8.77;;;7.75;;
52468;SDS011;38381;53.688;10.776;2023-03-01T21:46:22;9.77;;;7.07;;
52468;SDS011;38381;53.688;10.776;2023-03-01T21:56:26;11.93;;;8.35;;
52468;SDS011;38381;53.688;10.776;2023-03-01T22:01:28;9.55;;;7.88;;
52468;SDS011;38381;53.688;10.776;2023-03-01T22:06:30;13.20;;;9.52;;
52468;SDS011;38381;53.688;10.776;2023-03-01T22:11:34;10.25;;;8.27;;
52468;SDS011;38381;53.688;10.776;2023-03-01T22:16:38;14.80;;;9.50;;
52468;SDS011;38381;53.688;10.776;2023-03-01T22:21:41;39.90;;;9.77;;
52468;SDS011;38381;53.688;10.776;2023-03-01T22:26:44;15.02;;;7.93;;
52468;SDS011;38381;53.688;10.776;2023-03-01T22:31:46;8.55;;;7.13;;
52468;SDS011;38381;53.688;10.776;2023-03-01T22:36:47;11.75;;;9.15;;
52468;SDS011;38381;53.688;10.776;2023-03-01T22:41:48;11.10;;;6.85;;
52468;SDS011;38381;53.688;10.776;2023-03-01T22:46:49;8.93;;;8.02;;
52468;SDS011;38381;53.688;10.776;2023-03-01T22:51:50;13.10;;;9.65;;
52468;SDS011;38381;53.688;10.776;2023-03-01T22:56:50;12.88;;;7.93;;
52468;SDS011;38381;53.688;10.776;2023-03-01T23:01:51;9.55;;;7.45;;
52468;SDS011;38381;53.688;10.776;2023-03-01T23:06:52;10.52;;;8.27;;
52468;SDS011;38381;53.688;10.776;2023-03-01T23:11:53;11.88;;;7.43;;
52468;SDS011;38381;53.688;10.776;2023-03-01T23:16:54;7.32;;;6.53;;
52468;SDS011;38381;53.688;10.776;2023-03-01T23:21:55;11.32;;;8.80;;
52468;SDS011;38381;53.688;10.776;2023-03-01T23:26:56;9.02;;;7.57;;
52468;SDS011;38381;53.688;10.776;2023-03-01T23:31:58;9.40;;;8.45;;
52468;SDS011;38381;53.688;10.776;2023-03-01T23:36:59;10.52;;;7.38;;
52468;SDS011;38381;53.688;10.776;2023-03-01T23:42:00;12.02;;;9.32;;
52468;SDS011;38381;53.688;10.776;2023-03-01T23:47:01;9.00;;;7.75;;
52468;SDS011;38381;53.688;10.776;2023-03-01T23:52:02;9.50;;;8.40;;
52468;SDS011;38381;53.688;10.776;2023-03-01T23:57:03;11.63;;;8.82;;
